createdAt,value
2018-11-12T00:00:19.466Z,2.90
2018-11-12T00:02:57.070Z,3.17
2018-11-12T00:05:29.743Z,2.83
2018-11-12T00:08:01.852Z,2.83
2018-11-12T00:10:35.132Z,2.93
2018-11-12T00:13:06.793Z,2.60
2018-11-12T00:15:39.951Z,3.03
2018-11-12T00:18:12.477Z,2.70
2018-11-12T00:20:44.635Z,2.70
2018-11-12T00:23:16.359Z,2.80
2018-11-12T00:25:48.252Z,2.90
2018-11-12T00:28:20.293Z,3.03
2018-11-12T00:30:53.565Z,2.80
2018-11-12T00:33:25.541Z,2.63
2018-11-12T00:35:57.143Z,2.97
2018-11-12T00:38:28.989Z,2.70
2018-11-12T00:41:01.163Z,2.60
2018-11-12T00:43:32.898Z,3.00
2018-11-12T00:46:15.709Z,2.70
2018-11-12T00:48:47.996Z,2.87
2018-11-12T00:51:19.721Z,2.43
2018-11-12T00:53:52.398Z,2.53
2018-11-12T00:56:24.100Z,2.30
2018-11-12T00:58:56.806Z,2.43
2018-11-12T01:01:28.831Z,2.50
2018-11-12T01:04:00.455Z,2.50
2018-11-12T01:06:32.345Z,2.40
2018-11-12T01:09:05.634Z,2.50
2018-11-12T01:11:37.686Z,2.40
2018-11-12T01:14:10.227Z,2.70
2018-11-12T01:16:42.088Z,2.30
2018-11-12T01:19:14.288Z,2.17
2018-11-12T01:21:46.197Z,2.47
2018-11-12T01:24:18.093Z,2.23
2018-11-12T01:26:50.820Z,2.23
2018-11-12T01:29:22.885Z,2.27
2018-11-12T01:31:56.065Z,2.60
2018-11-12T01:34:27.230Z,2.47
2018-11-12T01:36:59.194Z,2.33
2018-11-12T01:39:32.920Z,2.37
2018-11-12T01:42:05.337Z,2.00
2018-11-12T01:44:36.964Z,1.93
2018-11-12T01:47:09.276Z,2.20
2018-11-12T01:49:41.451Z,2.63
2018-11-12T01:52:14.197Z,2.37
2018-11-12T01:54:46.434Z,2.30
2018-11-12T01:57:18.467Z,2.10
2018-11-12T01:59:50.540Z,2.10
2018-11-12T02:02:22.525Z,2.40
2018-11-12T02:04:54.532Z,2.27
2018-11-12T02:07:27.161Z,2.47
2018-11-12T02:09:59.743Z,2.43
2018-11-12T02:12:31.644Z,2.40
2018-11-12T02:15:04.106Z,2.20
2018-11-12T02:17:36.184Z,2.10
2018-11-12T02:23:08.628Z,1.73
2018-11-12T02:25:40.655Z,1.73
2018-11-12T02:28:12.681Z,1.83
2018-11-12T02:30:49.084Z,1.50
2018-11-12T02:33:20.902Z,1.67
2018-11-12T02:35:52.877Z,1.53
2018-11-12T02:38:25.085Z,1.23
2018-11-12T02:40:57.708Z,1.40
2018-11-12T02:43:30.336Z,1.43
2018-11-12T02:46:04.799Z,1.50
2018-11-12T02:48:36.452Z,1.70
2018-11-12T02:51:08.773Z,1.60
2018-11-12T02:53:41.030Z,1.60
2018-11-12T02:56:13.382Z,1.50
2018-11-12T02:58:45.428Z,1.40
2018-11-12T03:01:22.029Z,1.90
2018-11-12T03:03:54.702Z,1.50
2018-11-12T03:06:27.994Z,1.83
2018-11-12T03:09:02.548Z,1.87
2018-11-12T03:11:35.591Z,1.70
2018-11-12T03:14:07.803Z,2.10
2018-11-12T03:16:40.418Z,2.07
2018-11-12T03:19:13.713Z,2.00
2018-11-12T03:21:45.369Z,1.83
2018-11-12T03:24:17.134Z,2.10
2018-11-12T03:26:49.710Z,2.13
2018-11-12T03:29:21.607Z,2.53
2018-11-12T03:31:54.322Z,2.20
2018-11-12T03:34:26.504Z,2.20
2018-11-12T03:36:58.468Z,1.93
2018-11-12T03:39:30.633Z,2.00
2018-11-12T03:42:03.048Z,2.07
2018-11-12T03:44:36.039Z,1.93
2018-11-12T03:47:08.563Z,2.20
2018-11-12T03:49:40.443Z,2.13
2018-11-12T03:52:12.192Z,2.30
2018-11-12T03:54:45.242Z,2.30
2018-11-12T03:57:17.051Z,2.40
2018-11-12T03:59:48.757Z,2.00
2018-11-12T04:02:21.993Z,2.53
2018-11-12T04:04:53.844Z,1.97
2018-11-12T04:07:25.906Z,2.20
2018-11-12T04:09:57.921Z,2.40
2018-11-12T04:12:29.451Z,2.17
2018-11-12T04:15:01.556Z,2.20
2018-11-12T04:17:34.069Z,2.20
2018-11-12T04:20:06.326Z,2.30
2018-11-12T04:22:39.644Z,2.57
2018-11-12T04:25:12.310Z,2.40
2018-11-12T04:27:47.941Z,2.23
2018-11-12T04:30:20.251Z,2.20
2018-11-12T04:32:52.508Z,2.23
2018-11-12T04:35:24.600Z,2.10
2018-11-12T04:38:03.105Z,2.43
2018-11-12T04:40:34.985Z,2.27
2018-11-12T04:43:07.437Z,2.37
2018-11-12T04:45:39.908Z,2.30
2018-11-12T04:48:12.363Z,1.97
2018-11-12T04:50:44.381Z,2.40
2018-11-12T04:53:16.073Z,2.40
2018-11-12T04:55:48.239Z,2.10
2018-11-12T04:58:20.840Z,2.27
2018-11-12T05:00:53.611Z,1.93
2018-11-12T05:03:28.794Z,2.40
2018-11-12T05:06:00.665Z,2.20
2018-11-12T05:08:32.375Z,1.90
2018-11-12T05:11:04.049Z,2.20
2018-11-12T05:13:35.598Z,2.10
2018-11-12T05:16:07.865Z,2.00
2018-11-12T05:18:39.604Z,1.70
2018-11-12T05:21:12.145Z,1.30
2018-11-12T05:23:44.267Z,1.63
2018-11-12T05:26:16.101Z,1.70
2018-11-12T05:28:47.668Z,1.70
2018-11-12T05:31:19.184Z,1.47
2018-11-12T05:33:51.038Z,1.33
2018-11-12T05:36:23.026Z,1.50
2018-11-12T05:38:55.034Z,1.23
2018-11-12T05:41:27.607Z,1.17
2018-11-12T05:43:59.870Z,1.10
2018-11-12T05:46:31.289Z,1.30
2018-11-12T05:49:03.016Z,1.40
2018-11-12T05:51:35.546Z,1.40
2018-11-12T05:54:06.863Z,1.40
2018-11-12T05:56:38.823Z,1.30
2018-11-12T05:59:11.777Z,1.30
2018-11-12T06:01:43.281Z,1.30
2018-11-12T06:04:15.383Z,1.40
2018-11-12T06:06:47.775Z,1.60
2018-11-12T06:09:19.949Z,1.20
2018-11-12T06:11:51.594Z,1.07
2018-11-12T06:14:23.640Z,1.50
2018-11-12T06:16:55.229Z,1.63
2018-11-12T06:19:27.679Z,1.60
2018-11-12T06:21:59.309Z,1.40
2018-11-12T06:24:31.088Z,1.50
2018-11-12T06:27:03.557Z,1.33
2018-11-12T06:29:35.282Z,1.57
2018-11-12T06:32:07.732Z,1.50
2018-11-12T06:34:38.950Z,1.43
2018-11-12T06:37:10.294Z,1.60
2018-11-12T06:39:41.687Z,1.67
2018-11-12T06:42:19.367Z,1.50
2018-11-12T06:44:50.728Z,1.63
2018-11-12T06:47:24.185Z,1.60
2018-11-12T06:49:55.603Z,1.87
2018-11-12T06:52:27.084Z,2.10
2018-11-12T06:55:00.549Z,1.93
2018-11-12T06:57:31.959Z,1.80
2018-11-12T07:00:03.677Z,1.80
2018-11-12T07:02:38.235Z,1.80
2018-11-12T07:05:10.218Z,1.53
2018-11-12T07:07:41.355Z,1.43
2018-11-12T07:10:20.244Z,1.63
2018-11-12T07:13:08.695Z,1.63
2018-11-12T07:18:32.208Z,2.00
2018-11-12T07:21:03.552Z,2.03
2018-11-12T07:23:35.048Z,1.90
2018-11-12T07:26:06.148Z,1.80
2018-11-12T07:28:39.037Z,1.97
2018-11-12T07:31:10.174Z,1.90
2018-11-12T07:33:41.629Z,2.33
2018-11-12T07:36:12.871Z,2.20
2018-11-12T07:38:44.399Z,1.90
2018-11-12T07:41:16.507Z,2.17
2018-11-12T07:43:47.930Z,2.13
2018-11-12T07:46:19.918Z,3.13
2018-11-12T07:48:51.136Z,4.03
2018-11-12T07:51:22.291Z,5.73
2018-11-12T07:53:58.783Z,6.60
2018-11-12T07:56:30.743Z,6.33
2018-11-12T07:59:01.758Z,5.90
2018-11-12T08:01:32.821Z,6.97
2018-11-12T08:04:04.355Z,7.60
2018-11-12T08:06:35.554Z,7.33
2018-11-12T08:09:08.424Z,6.87
2018-11-12T08:11:39.370Z,7.07
2018-11-12T08:14:10.599Z,6.63
2018-11-12T08:16:41.973Z,5.77
2018-11-12T08:19:13.898Z,5.30
2018-11-12T08:21:45.008Z,4.90
2018-11-12T08:24:16.777Z,4.17
2018-11-12T08:26:47.776Z,4.40
2018-11-12T08:29:19.206Z,4.60
2018-11-12T08:31:51.175Z,3.50
2018-11-12T08:34:22.832Z,3.60
2018-11-12T08:36:53.966Z,3.30
2018-11-12T08:39:25.563Z,3.30
2018-11-12T08:41:56.521Z,2.97
2018-11-12T08:44:27.313Z,3.13
2018-11-12T08:46:58.555Z,3.30
2018-11-12T08:49:29.675Z,3.30
2018-11-12T08:52:00.657Z,2.83
2018-11-12T08:54:32.896Z,2.67
2018-11-12T08:57:03.962Z,2.60
2018-11-12T08:59:35.305Z,2.20
2018-11-12T09:02:06.758Z,3.03
2018-11-12T09:04:37.786Z,2.40
2018-11-12T09:07:09.257Z,2.63
2018-11-12T09:09:40.397Z,2.60
2018-11-12T09:12:22.626Z,2.43
2018-11-12T09:14:54.300Z,2.40
2018-11-12T09:17:28.993Z,2.77
2018-11-12T09:20:04.287Z,2.47
2018-11-12T09:22:35.654Z,2.40
2018-11-12T09:25:08.290Z,2.10
2018-11-12T09:27:39.472Z,2.87
2018-11-12T09:30:12.889Z,2.73
2018-11-12T09:32:44.968Z,2.67
2018-11-12T09:35:17.570Z,2.40
2018-11-12T09:37:50.033Z,2.80
2018-11-12T09:40:26.804Z,2.80
2018-11-12T09:42:57.946Z,2.67
2018-11-12T09:45:29.692Z,2.73
2018-11-12T09:48:04.454Z,2.73
2018-11-12T09:50:35.582Z,2.87
2018-11-12T09:53:07.000Z,2.70
2018-11-12T09:55:38.507Z,2.90
2018-11-12T09:58:10.378Z,2.87
2018-11-12T10:00:42.569Z,3.50
2018-11-12T10:03:15.188Z,3.33
2018-11-12T10:05:46.823Z,3.67
2018-11-12T10:08:18.328Z,3.80
2018-11-12T10:10:54.198Z,3.93
2018-11-12T10:13:27.083Z,3.97
2018-11-12T10:15:58.852Z,4.10
2018-11-12T10:18:27.298Z,4.43
2018-11-12T10:20:58.773Z,4.97
2018-11-12T10:23:31.275Z,5.10
2018-11-12T10:26:03.045Z,5.10
2018-11-12T10:28:34.906Z,4.70
2018-11-12T10:31:06.582Z,5.10
2018-11-12T10:33:37.744Z,5.73
2018-11-12T10:36:09.887Z,5.00
2018-11-12T10:38:41.599Z,4.80
2018-11-12T10:41:13.387Z,4.63
2018-11-12T10:43:45.251Z,5.20
2018-11-12T10:46:16.593Z,5.03
2018-11-12T10:48:48.199Z,5.10
2018-11-12T10:51:19.155Z,5.03
2018-11-12T10:53:53.663Z,5.10
2018-11-12T10:56:25.396Z,5.00
2018-11-12T10:59:02.090Z,5.67
2018-11-12T11:02:36.811Z,5.17
2018-11-12T11:05:08.358Z,5.20
2018-11-12T11:07:40.709Z,5.53
2018-11-12T11:10:12.172Z,5.60
2018-11-12T11:12:44.613Z,5.87
2018-11-12T11:15:17.125Z,5.57
2018-11-12T11:17:48.693Z,6.20
2018-11-12T11:20:20.401Z,6.27
2018-11-12T11:22:52.027Z,6.43
2018-11-12T11:25:23.743Z,6.40
2018-11-12T11:27:55.101Z,6.20
2018-11-12T11:30:27.057Z,5.83
2018-11-12T11:32:58.932Z,6.50
2018-11-12T11:35:30.220Z,6.10
2018-11-12T11:38:01.309Z,6.70
2018-11-12T11:40:32.226Z,7.00
2018-11-12T11:43:03.446Z,7.30
2018-11-12T11:45:34.744Z,6.87
2018-11-12T11:48:05.522Z,6.63
2018-11-12T11:50:37.226Z,6.73
2018-11-12T11:53:08.417Z,6.90
2018-11-12T11:55:39.595Z,7.07
2018-11-12T11:58:10.599Z,8.37
2018-11-12T12:00:42.054Z,7.63
2018-11-12T12:03:13.022Z,7.73
2018-11-12T12:05:43.943Z,7.63
2018-11-12T12:08:14.531Z,7.70
2018-11-12T12:10:45.718Z,7.70
2018-11-12T12:13:17.879Z,7.87
2018-11-12T12:15:49.241Z,9.40
2018-11-12T12:18:20.039Z,9.40
2018-11-12T12:20:51.087Z,8.17
2018-11-12T12:23:22.478Z,9.03
2018-11-12T12:25:53.344Z,8.67
2018-11-12T12:28:24.253Z,9.40
2018-11-12T12:30:54.653Z,9.00
2018-11-12T12:33:26.027Z,9.20
2018-11-12T12:35:57.250Z,9.07
2018-11-12T12:38:28.882Z,9.60
2018-11-12T12:41:00.050Z,9.67
2018-11-12T12:43:31.597Z,10.03
2018-11-12T12:46:03.388Z,10.13
2018-11-12T12:48:35.092Z,10.60
2018-11-12T12:51:06.857Z,10.00
2018-11-12T12:53:39.199Z,10.17
2018-11-12T12:56:10.878Z,9.30
2018-11-12T12:58:42.002Z,8.93
2018-11-12T13:01:13.729Z,7.77
2018-11-12T13:03:44.601Z,7.90
2018-11-12T13:06:15.969Z,11.17
2018-11-12T13:08:48.227Z,12.57
2018-11-12T13:11:19.738Z,13.80
2018-11-12T13:13:51.010Z,15.20
2018-11-12T13:16:22.249Z,16.73
2018-11-12T13:18:53.555Z,16.87
2018-11-12T13:21:26.273Z,19.63
2018-11-12T13:23:57.204Z,21.53
2018-11-12T13:26:28.558Z,23.00
2018-11-12T13:28:59.916Z,25.03
2018-11-12T13:31:31.322Z,25.83
2018-11-12T13:34:02.276Z,25.57
2018-11-12T13:36:33.413Z,27.07
2018-11-12T13:39:06.011Z,26.70
2018-11-12T13:41:38.197Z,25.57
2018-11-12T13:44:09.566Z,24.83
2018-11-12T13:46:48.975Z,23.30
2018-11-12T13:49:20.963Z,23.50
2018-11-12T13:51:52.946Z,22.03
2018-11-12T13:54:24.408Z,19.77
2018-11-12T13:56:55.598Z,19.93
2018-11-12T13:59:26.550Z,19.37
2018-11-12T14:01:57.721Z,19.47
2018-11-12T14:04:34.373Z,18.37
2018-11-12T14:07:06.096Z,18.00
2018-11-12T14:09:38.655Z,18.33
2018-11-12T14:12:10.230Z,17.50
2018-11-12T14:14:41.606Z,15.90
2018-11-12T14:17:13.344Z,15.07
2018-11-12T14:19:44.888Z,15.63
2018-11-12T14:22:19.053Z,16.03
2018-11-12T14:24:50.891Z,15.97
2018-11-12T14:27:23.491Z,17.00
2018-11-12T14:30:02.569Z,15.70
2018-11-12T14:32:36.701Z,17.20
2018-11-12T14:35:12.452Z,17.47
2018-11-12T14:37:46.070Z,14.00
2018-11-12T14:40:18.409Z,9.13
2018-11-12T14:42:49.985Z,8.13
2018-11-12T14:45:22.096Z,8.20
2018-11-12T14:47:54.370Z,7.37
2018-11-12T14:50:25.848Z,7.40
2018-11-12T14:52:57.941Z,7.93
2018-11-12T14:55:30.152Z,6.80
2018-11-12T14:58:02.707Z,6.83
2018-11-12T15:00:34.465Z,6.27
2018-11-12T15:03:06.186Z,6.43
2018-11-12T15:05:36.990Z,5.60
2018-11-12T15:08:08.585Z,5.10
2018-11-12T15:10:39.055Z,5.30
2018-11-12T15:13:09.791Z,4.70
2018-11-12T15:15:40.900Z,4.57
2018-11-12T15:18:11.424Z,4.80
2018-11-12T15:20:43.022Z,5.00
2018-11-12T15:23:13.422Z,5.93
2018-11-12T15:25:43.564Z,5.27
2018-11-12T15:28:13.685Z,5.50
2018-11-12T15:30:43.918Z,4.90
2018-11-12T15:33:14.726Z,5.90
2018-11-12T15:35:45.160Z,5.57
2018-11-12T15:38:18.712Z,6.03
2018-11-12T15:40:48.858Z,6.20
2018-11-12T15:43:19.234Z,5.20
2018-11-12T15:45:57.605Z,6.23
2018-11-12T15:48:28.070Z,6.40
2018-11-12T15:50:59.953Z,6.17
2018-11-12T15:53:30.252Z,5.90
2018-11-12T15:56:00.872Z,6.60
2018-11-12T15:58:31.486Z,6.97
2018-11-12T16:01:07.081Z,7.73
2018-11-12T16:03:37.959Z,8.63
2018-11-12T16:06:08.440Z,7.30
2018-11-12T16:08:39.263Z,7.80
2018-11-12T16:11:10.087Z,8.87
2018-11-12T16:13:40.981Z,9.17
2018-11-12T16:16:11.770Z,9.80
2018-11-12T16:18:41.987Z,10.50
2018-11-12T16:21:12.685Z,10.33
2018-11-12T16:23:43.300Z,10.70
2018-11-12T16:26:14.987Z,10.43
2018-11-12T16:28:46.998Z,10.20
2018-11-12T16:31:18.162Z,10.00
2018-11-12T16:33:49.943Z,10.07
2018-11-12T16:36:21.265Z,10.77
2018-11-12T16:38:52.709Z,11.20
2018-11-12T16:41:24.401Z,12.07
2018-11-12T16:44:01.481Z,12.30
2018-11-12T16:46:33.357Z,12.37
2018-11-12T16:49:04.699Z,12.50
2018-11-12T16:51:36.493Z,12.20
2018-11-12T16:54:08.065Z,12.57
2018-11-12T16:56:39.314Z,12.70
2018-11-12T16:59:11.226Z,13.43
2018-11-12T17:01:42.369Z,13.40
2018-11-12T17:04:14.249Z,13.03
2018-11-12T17:06:45.298Z,12.27
2018-11-12T17:09:16.948Z,13.67
2018-11-12T17:11:48.571Z,14.73
2018-11-12T17:14:19.966Z,14.57
2018-11-12T17:16:50.529Z,13.83
2018-11-12T17:19:21.869Z,13.93
2018-11-12T17:21:53.031Z,13.47
2018-11-12T17:24:26.580Z,13.97
2018-11-12T17:26:59.276Z,13.63
2018-11-12T17:29:31.169Z,14.13
2018-11-12T17:32:03.196Z,13.47
2018-11-12T17:34:35.758Z,16.07
2018-11-12T17:37:08.743Z,15.80
2018-11-12T17:39:40.925Z,14.60
2018-11-12T17:42:12.191Z,14.23
2018-11-12T17:44:44.730Z,13.67
2018-11-12T17:47:16.851Z,14.47
2018-11-12T17:49:48.408Z,15.20
2018-11-12T17:52:21.177Z,15.50
2018-11-12T17:54:52.486Z,14.90
2018-11-12T17:57:24.751Z,14.93
2018-11-12T17:59:55.965Z,16.83
2018-11-12T18:02:27.581Z,16.07
2018-11-12T18:04:59.460Z,17.00
2018-11-12T18:07:31.968Z,17.03
2018-11-12T18:10:04.962Z,17.67
2018-11-12T18:12:36.919Z,18.00
2018-11-12T18:15:13.163Z,18.37
2018-11-12T18:17:44.694Z,19.70
2018-11-12T18:20:22.900Z,21.23
2018-11-12T18:22:55.786Z,21.07
2018-11-12T18:25:27.475Z,21.77
2018-11-12T18:27:59.626Z,22.80
2018-11-12T18:30:32.840Z,20.50
2018-11-12T18:33:04.601Z,22.33
2018-11-12T18:35:36.632Z,19.97
2018-11-12T18:39:12.306Z,20.33
2018-11-12T18:41:44.420Z,19.93
2018-11-12T18:44:16.864Z,22.40
2018-11-12T18:46:48.667Z,22.90
2018-11-12T18:49:20.387Z,22.27
2018-11-12T18:51:52.310Z,23.13
2018-11-12T18:54:23.320Z,23.30
2018-11-12T18:56:55.563Z,24.00
2018-11-12T18:59:26.213Z,21.57
2018-11-12T19:01:56.842Z,20.97
2018-11-12T19:04:27.436Z,20.33
2018-11-12T19:07:00.416Z,20.57
2018-11-12T19:09:31.355Z,21.27
2018-11-12T19:12:02.274Z,20.83
2018-11-12T19:14:33.508Z,21.37
2018-11-12T19:17:04.725Z,20.63
2018-11-12T19:19:35.853Z,20.97
2018-11-12T19:22:08.090Z,20.27
2018-11-12T19:24:38.980Z,19.77
2018-11-12T19:27:10.269Z,19.50
2018-11-12T19:29:41.882Z,19.53
2018-11-12T19:32:12.533Z,19.33
2018-11-12T19:34:43.919Z,18.77
2018-11-12T19:37:14.581Z,21.63
2018-11-12T19:39:45.147Z,20.83
2018-11-12T19:42:15.717Z,20.20
2018-11-12T19:44:47.021Z,20.03
2018-11-12T19:47:20.088Z,20.07
2018-11-12T19:49:50.735Z,20.50
2018-11-12T19:52:21.835Z,20.50
2018-11-12T19:54:52.407Z,19.87
2018-11-12T19:57:23.151Z,20.50
2018-11-12T19:59:55.422Z,20.00
2018-11-12T20:02:27.104Z,20.17
2018-11-12T20:04:58.807Z,20.87
2018-11-12T20:07:30.465Z,19.33
2018-11-12T20:10:02.438Z,19.70
2018-11-12T20:12:34.390Z,18.87
2018-11-12T20:15:06.688Z,21.93
2018-11-12T20:17:38.225Z,20.30
2018-11-12T20:20:14.250Z,20.37
2018-11-12T20:22:47.378Z,19.97
2018-11-12T20:25:20.550Z,19.73
2018-11-12T20:27:52.849Z,20.10
2018-11-12T20:30:29.694Z,19.73
2018-11-12T20:33:00.953Z,19.40
2018-11-12T20:35:32.552Z,20.20
2018-11-12T20:38:03.672Z,20.60
2018-11-12T20:40:35.098Z,20.00
2018-11-12T20:43:06.425Z,21.30
2018-11-12T20:45:37.910Z,20.53
2018-11-12T20:48:09.199Z,19.93
2018-11-12T20:50:40.354Z,21.00
2018-11-12T20:53:11.766Z,21.60
2018-11-12T20:55:43.149Z,21.47
2018-11-12T20:58:14.693Z,19.27
2018-11-12T21:00:45.633Z,20.53
2018-11-12T21:03:16.972Z,21.90
2018-11-12T21:05:48.513Z,21.90
2018-11-12T21:08:20.043Z,21.63
2018-11-12T21:10:51.276Z,22.50
2018-11-12T21:13:22.580Z,20.90
2018-11-12T21:15:54.318Z,20.73
2018-11-12T21:18:25.751Z,21.77
2018-11-12T21:20:56.937Z,22.23
2018-11-12T21:23:28.333Z,21.60
2018-11-12T21:25:59.966Z,22.63
2018-11-12T21:28:31.287Z,21.70
2018-11-12T21:31:03.046Z,23.57
2018-11-12T21:33:34.888Z,23.73
2018-11-12T21:36:06.342Z,22.63
2018-11-12T21:38:39.362Z,24.00
2018-11-12T21:41:11.618Z,23.87
2018-11-12T21:43:43.917Z,23.73
2018-11-12T21:46:16.223Z,22.90
2018-11-12T21:48:48.261Z,23.97
2018-11-12T21:51:20.485Z,24.07
2018-11-12T21:53:52.772Z,23.63
2018-11-12T21:56:24.499Z,23.87
2018-11-12T21:59:07.288Z,23.37
2018-11-12T22:01:39.260Z,24.93
2018-11-12T22:04:10.693Z,26.27
2018-11-12T22:06:42.109Z,24.90
2018-11-12T22:09:13.225Z,25.20
2018-11-12T22:11:44.433Z,26.43
2018-11-12T22:14:16.135Z,25.33
2018-11-12T22:16:48.187Z,25.33
2018-11-12T22:19:21.558Z,25.27
2018-11-12T22:21:52.920Z,25.37
2018-11-12T22:24:25.124Z,24.67
2018-11-12T22:26:57.207Z,24.03
2018-11-12T22:29:29.302Z,25.60
2018-11-12T22:32:00.753Z,23.57
2018-11-12T22:34:31.594Z,22.53
2018-11-12T22:37:03.395Z,24.03
2018-11-12T22:39:36.860Z,23.97
2018-11-12T22:42:07.516Z,22.43
2018-11-12T22:44:39.082Z,23.50
2018-11-12T22:47:11.487Z,22.90
2018-11-12T22:49:46.273Z,22.73
2018-11-12T22:52:18.697Z,23.70
2018-11-12T22:54:51.078Z,23.10
2018-11-12T22:57:23.192Z,23.23
2018-11-12T22:59:55.238Z,22.03
2018-11-12T23:02:27.745Z,23.37
2018-11-12T23:05:00.535Z,23.57
2018-11-12T23:07:32.150Z,23.30
2018-11-12T23:10:04.927Z,22.17
2018-11-12T23:12:36.174Z,22.47
2018-11-12T23:15:08.643Z,23.57
2018-11-12T23:17:41.305Z,23.33
2018-11-12T23:20:18.162Z,23.70
2018-11-12T23:22:50.707Z,23.30
2018-11-12T23:25:22.602Z,25.73
2018-11-12T23:27:55.084Z,23.83
2018-11-12T23:30:27.393Z,24.93
2018-11-12T23:32:58.893Z,25.27
2018-11-12T23:35:32.141Z,25.63
2018-11-12T23:38:05.474Z,25.33
2018-11-12T23:40:36.892Z,24.10
2018-11-12T23:43:08.721Z,24.70
2018-11-12T23:45:39.954Z,23.83
2018-11-12T23:48:11.824Z,24.80
2018-11-12T23:50:43.145Z,25.90
2018-11-12T23:53:14.623Z,25.37
2018-11-12T23:55:46.517Z,26.73
2018-11-12T23:58:18.670Z,26.67
